createdAt,value
2023-03-15T00:00:03.373Z,971.16
2023-03-15T00:01:03.480Z,971.16
2023-03-15T00:02:03.727Z,971.16
2023-03-15T00:03:03.524Z,971.14
2023-03-15T00:04:03.510Z,971.22
2023-03-15T00:05:03.529Z,971.19
2023-03-15T00:06:03.587Z,971.33
2023-03-15T00:07:03.541Z,971.39
2023-03-15T00:08:04.917Z,971.20
2023-03-15T00:09:03.559Z,971.39
2023-03-15T00:10:03.602Z,971.37
2023-03-15T00:11:03.640Z,971.42
2023-03-15T00:12:03.642Z,971.45
2023-03-15T00:13:03.671Z,971.45
2023-03-15T00:14:03.674Z,971.48
2023-03-15T00:15:03.754Z,971.51
2023-03-15T00:16:04.059Z,971.59
2023-03-15T00:17:03.048Z,971.45
2023-03-15T00:18:03.152Z,971.57
2023-03-15T00:19:03.105Z,971.37
2023-03-15T00:20:03.102Z,971.48
2023-03-15T00:21:03.276Z,971.54
2023-03-15T00:22:03.270Z,971.48
2023-03-15T00:23:03.201Z,971.51
2023-03-15T00:24:03.340Z,971.60
2023-03-15T00:25:03.319Z,971.62
2023-03-15T00:26:03.381Z,971.60
2023-03-15T00:27:03.370Z,971.60
2023-03-15T00:28:03.313Z,971.77
2023-03-15T00:29:03.382Z,971.79
2023-03-15T00:30:03.330Z,971.77
2023-03-15T00:31:03.423Z,971.68
2023-03-15T00:32:03.469Z,971.80
2023-03-15T00:33:03.820Z,971.84
2023-03-15T00:34:03.827Z,971.82
2023-03-15T00:35:03.902Z,971.69
2023-03-15T00:36:03.937Z,971.74
2023-03-15T00:37:02.942Z,971.80
2023-03-15T00:38:03.965Z,971.80
2023-03-15T00:39:03.999Z,971.69
2023-03-15T00:40:03.830Z,971.74
2023-03-15T00:41:03.941Z,971.74
2023-03-15T00:42:03.885Z,971.66
2023-03-15T00:43:02.898Z,971.69
2023-03-15T00:44:02.999Z,971.80
2023-03-15T00:45:02.959Z,971.85
2023-03-15T00:46:03.009Z,971.83
2023-03-15T00:47:02.984Z,972.07
2023-03-15T00:48:03.052Z,971.75
2023-03-15T00:49:02.997Z,971.85
2023-03-15T00:50:03.065Z,971.83
2023-03-15T00:51:03.066Z,971.91
2023-03-15T00:52:03.462Z,971.88
2023-03-15T00:53:03.151Z,971.81
2023-03-15T00:54:03.108Z,971.78
2023-03-15T00:55:03.292Z,971.94
2023-03-15T00:56:03.119Z,971.94
2023-03-15T00:57:03.025Z,971.96
2023-03-15T00:58:03.150Z,971.91
2023-03-15T00:59:03.267Z,971.85
2023-03-15T01:00:03.263Z,971.96
2023-03-15T01:01:03.282Z,972.08
2023-03-15T01:02:03.544Z,971.99
2023-03-15T01:03:03.534Z,972.02
2023-03-15T01:04:03.460Z,971.97
2023-03-15T01:05:03.539Z,972.00
2023-03-15T01:06:03.465Z,972.05
2023-03-15T01:07:03.475Z,972.00
2023-03-15T01:08:03.482Z,972.05
2023-03-15T01:09:03.509Z,972.03
2023-03-15T01:10:03.844Z,971.94
2023-03-15T01:11:03.679Z,971.91
2023-03-15T01:12:03.780Z,971.94
2023-03-15T01:13:03.926Z,972.03
2023-03-15T01:14:03.791Z,972.00
2023-03-15T01:15:03.843Z,971.92
2023-03-15T01:16:03.154Z,972.06
2023-03-15T01:17:03.957Z,972.00
2023-03-15T01:18:03.015Z,972.25
2023-03-15T01:19:03.028Z,972.06
2023-03-15T01:20:03.008Z,972.06
2023-03-15T01:21:03.000Z,972.12
2023-03-15T01:22:02.898Z,972.12
2023-03-15T01:23:03.013Z,972.06
2023-03-15T01:24:03.029Z,972.06
2023-03-15T01:25:03.004Z,972.09
2023-03-15T01:26:03.025Z,972.03
2023-03-15T01:27:02.998Z,972.09
2023-03-15T01:28:03.073Z,972.14
2023-03-15T01:29:03.186Z,972.09
2023-03-15T01:30:03.278Z,972.01
2023-03-15T01:31:03.202Z,971.98
2023-03-15T01:32:03.477Z,972.06
2023-03-15T01:33:03.244Z,972.04
2023-03-15T01:34:03.410Z,972.04
2023-03-15T01:35:03.299Z,972.07
2023-03-15T01:36:03.462Z,971.87
2023-03-15T01:37:03.404Z,972.09
2023-03-15T01:38:03.332Z,971.87
2023-03-15T01:39:03.371Z,972.04
2023-03-15T01:40:03.527Z,971.95
2023-03-15T01:41:03.605Z,972.09
2023-03-15T01:42:03.560Z,971.96
2023-03-15T01:43:03.650Z,972.07
2023-03-15T01:44:03.572Z,972.07
2023-03-15T01:45:03.643Z,972.07
2023-03-15T01:46:03.677Z,972.12
2023-03-15T01:47:03.848Z,972.18
2023-03-15T01:48:03.668Z,972.15
2023-03-15T01:49:03.703Z,972.15
2023-03-15T01:50:03.791Z,972.21
2023-03-15T01:51:03.746Z,972.13
2023-03-15T01:52:03.851Z,972.21
2023-03-15T01:53:02.878Z,972.15
2023-03-15T01:54:03.020Z,972.10
2023-03-15T01:55:02.959Z,972.24
2023-03-15T01:56:03.020Z,972.29
2023-03-15T01:57:03.076Z,972.29
2023-03-15T01:58:03.118Z,972.10
2023-03-15T01:59:03.131Z,972.29
2023-03-15T02:00:03.012Z,972.18
2023-03-15T02:01:03.184Z,972.18
2023-03-15T02:02:03.278Z,972.35
2023-03-15T02:03:03.139Z,972.32
2023-03-15T02:04:03.175Z,972.21
2023-03-15T02:05:03.051Z,972.35
2023-03-15T02:06:03.109Z,972.41
2023-03-15T02:07:03.152Z,972.27
2023-03-15T02:08:03.206Z,972.38
2023-03-15T02:09:03.176Z,972.33
2023-03-15T02:10:03.235Z,972.41
2023-03-15T02:11:03.372Z,972.39
2023-03-15T02:12:03.291Z,972.47
2023-03-15T02:13:03.206Z,972.39
2023-03-15T02:14:03.272Z,972.33
2023-03-15T02:15:03.345Z,972.52
2023-03-15T02:16:03.373Z,972.52
2023-03-15T02:17:03.342Z,972.63
2023-03-15T02:18:03.290Z,972.52
2023-03-15T02:19:03.322Z,972.45
2023-03-15T02:20:03.424Z,972.52
2023-03-15T02:21:03.384Z,972.64
2023-03-15T02:22:03.322Z,972.58
2023-03-15T02:23:03.282Z,972.69
2023-03-15T02:24:03.225Z,972.64
2023-03-15T02:25:03.355Z,972.67
2023-03-15T02:26:03.281Z,972.61
2023-03-15T02:27:03.484Z,972.72
2023-03-15T02:28:03.464Z,972.59
2023-03-15T02:29:03.379Z,972.64
2023-03-15T02:30:03.529Z,972.70
2023-03-15T02:31:03.508Z,972.70
2023-03-15T02:32:04.028Z,972.76
2023-03-15T02:33:03.162Z,972.76
2023-03-15T02:34:03.245Z,972.73
2023-03-15T02:35:03.201Z,972.59
2023-03-15T02:36:03.295Z,972.70
2023-03-15T02:37:03.171Z,972.81
2023-03-15T02:38:03.285Z,972.79
2023-03-15T02:39:03.322Z,972.68
2023-03-15T02:40:03.274Z,972.62
2023-03-15T02:41:03.286Z,972.82
2023-03-15T02:42:03.293Z,972.85
2023-03-15T02:43:03.339Z,972.85
2023-03-15T02:44:03.338Z,973.02
2023-03-15T02:45:03.315Z,972.68
2023-03-15T02:46:03.322Z,972.77
2023-03-15T02:47:03.260Z,972.77
2023-03-15T02:48:03.294Z,972.69
2023-03-15T02:49:03.259Z,972.80
2023-03-15T02:50:03.310Z,972.94
2023-03-15T02:51:03.344Z,972.88
2023-03-15T02:52:03.277Z,972.77
2023-03-15T02:53:03.348Z,972.66
2023-03-15T02:54:03.256Z,972.77
2023-03-15T02:55:03.263Z,972.72
2023-03-15T02:56:03.249Z,972.74
2023-03-15T02:57:03.207Z,972.88
2023-03-15T02:58:03.245Z,972.91
2023-03-15T02:59:03.201Z,972.80
2023-03-15T03:00:03.361Z,972.86
2023-03-15T03:01:03.421Z,972.83
2023-03-15T03:02:03.293Z,972.72
2023-03-15T03:03:03.404Z,972.75
2023-03-15T03:04:03.371Z,972.80
2023-03-15T03:05:03.445Z,972.92
2023-03-15T03:06:03.525Z,972.80
2023-03-15T03:07:03.587Z,972.80
2023-03-15T03:08:03.591Z,972.89
2023-03-15T03:09:03.624Z,972.89
2023-03-15T03:10:03.540Z,972.86
2023-03-15T03:11:03.618Z,972.92
2023-03-15T03:12:03.652Z,972.86
2023-03-15T03:13:03.635Z,972.95
2023-03-15T03:14:03.576Z,972.89
2023-03-15T03:15:03.569Z,973.12
2023-03-15T03:16:03.759Z,973.01
2023-03-15T03:17:03.868Z,973.03
2023-03-15T03:18:03.834Z,973.09
2023-03-15T03:19:03.823Z,973.06
2023-03-15T03:20:03.781Z,973.04
2023-03-15T03:21:03.847Z,972.92
2023-03-15T03:22:03.862Z,973.15
2023-03-15T03:23:03.899Z,973.07
2023-03-15T03:24:03.788Z,973.12
2023-03-15T03:25:03.850Z,973.12
2023-03-15T03:26:03.776Z,973.07
2023-03-15T03:27:03.730Z,973.18
2023-03-15T03:28:03.790Z,973.21
2023-03-15T03:29:03.859Z,973.12
2023-03-15T03:30:03.896Z,973.18
2023-03-15T03:31:04.000Z,973.18
2023-03-15T03:32:02.974Z,973.29
2023-03-15T03:33:03.072Z,973.40
2023-03-15T03:34:02.980Z,973.35
2023-03-15T03:35:03.018Z,973.29
2023-03-15T03:36:02.994Z,973.46
2023-03-15T03:37:03.092Z,973.38
2023-03-15T03:38:03.065Z,973.41
2023-03-15T03:39:03.170Z,973.60
2023-03-15T03:40:03.319Z,973.44
2023-03-15T03:41:03.329Z,973.53
2023-03-15T03:42:03.345Z,973.42
2023-03-15T03:43:03.518Z,973.42
2023-03-15T03:44:03.439Z,973.55
2023-03-15T03:45:03.456Z,973.53
2023-03-15T03:46:03.644Z,973.61
2023-03-15T03:47:03.523Z,973.69
2023-03-15T03:48:03.476Z,973.61
2023-03-15T03:49:03.460Z,973.67
2023-03-15T03:50:03.423Z,973.64
2023-03-15T03:51:03.561Z,973.64
2023-03-15T03:52:03.478Z,973.56
2023-03-15T03:53:03.539Z,973.70
2023-03-15T03:54:03.507Z,973.70
2023-03-15T03:55:03.460Z,973.54
2023-03-15T03:56:03.501Z,973.49
2023-03-15T03:57:03.567Z,973.54
2023-03-15T03:58:03.626Z,973.43
2023-03-15T03:59:03.628Z,973.56
2023-03-15T04:00:03.602Z,973.46
2023-03-15T04:01:03.637Z,973.67
2023-03-15T04:02:03.680Z,973.49
2023-03-15T04:03:03.744Z,973.57
2023-03-15T04:04:03.069Z,973.59
2023-03-15T04:05:03.098Z,973.62
2023-03-15T04:06:03.062Z,973.59
2023-03-15T04:07:03.108Z,973.52
2023-03-15T04:08:03.128Z,973.60
2023-03-15T04:09:03.240Z,973.65
2023-03-15T04:10:03.243Z,973.54
2023-03-15T04:11:03.201Z,973.47
2023-03-15T04:12:03.468Z,973.65
2023-03-15T04:13:03.357Z,973.65
2023-03-15T04:14:03.434Z,973.71
2023-03-15T04:15:03.497Z,973.76
2023-03-15T04:16:03.461Z,973.79
2023-03-15T04:17:03.552Z,973.62
2023-03-15T04:18:03.617Z,973.76
2023-03-15T04:19:03.707Z,973.63
2023-03-15T04:20:03.765Z,973.82
2023-03-15T04:21:03.718Z,973.65
2023-03-15T04:22:03.726Z,973.74
2023-03-15T04:23:03.799Z,973.79
2023-03-15T04:24:03.774Z,973.68
2023-03-15T04:25:03.743Z,973.65
2023-03-15T04:26:03.747Z,973.77
2023-03-15T04:27:03.765Z,973.77
2023-03-15T04:28:03.836Z,973.80
2023-03-15T04:29:03.757Z,973.88
2023-03-15T04:31:03.154Z,973.88
2023-03-15T04:32:03.007Z,973.94
2023-03-15T04:33:03.068Z,973.83
2023-03-15T04:34:03.061Z,973.78
2023-03-15T04:35:03.104Z,973.89
2023-03-15T04:36:03.399Z,974.00
2023-03-15T04:37:03.230Z,973.94
2023-03-15T04:38:03.229Z,973.78
2023-03-15T04:39:03.168Z,973.81
2023-03-15T04:40:03.252Z,973.89
2023-03-15T04:41:03.238Z,973.89
2023-03-15T04:42:03.307Z,973.89
2023-03-15T04:43:03.408Z,974.09
2023-03-15T04:44:03.342Z,973.92
2023-03-15T04:45:03.491Z,974.06
2023-03-15T04:46:03.495Z,974.01
2023-03-15T04:47:03.489Z,973.98
2023-03-15T04:48:03.410Z,974.12
2023-03-15T04:49:03.494Z,974.06
2023-03-15T04:50:03.543Z,974.04
2023-03-15T04:51:03.470Z,974.15
2023-03-15T04:52:03.600Z,974.12
2023-03-15T04:53:03.710Z,974.09
2023-03-15T04:54:03.700Z,974.26
2023-03-15T04:55:03.723Z,974.07
2023-03-15T04:56:05.201Z,974.12
2023-03-15T04:57:03.713Z,974.37
2023-03-15T04:58:03.712Z,974.32
2023-03-15T04:59:03.746Z,974.35
2023-03-15T05:00:03.785Z,974.27
2023-03-15T05:01:03.863Z,974.32
2023-03-15T05:02:04.415Z,974.32
2023-03-15T05:03:03.771Z,974.24
2023-03-15T05:04:03.792Z,974.32
2023-03-15T05:05:03.826Z,974.30
2023-03-15T05:06:02.910Z,974.27
2023-03-15T05:07:02.913Z,974.24
2023-03-15T05:08:02.987Z,974.32
2023-03-15T05:09:03.029Z,974.38
2023-03-15T05:10:02.990Z,974.27
2023-03-15T05:11:03.082Z,974.27
2023-03-15T05:12:03.063Z,974.27
2023-03-15T05:13:02.987Z,974.33
2023-03-15T05:14:02.930Z,974.36
2023-03-15T05:15:04.049Z,974.30
2023-03-15T05:16:03.025Z,974.33
2023-03-15T05:17:03.068Z,974.33
2023-03-15T05:18:03.173Z,974.53
2023-03-15T05:19:03.077Z,974.36
2023-03-15T05:20:03.138Z,974.44
2023-03-15T05:21:03.110Z,974.28
2023-03-15T05:22:03.193Z,974.36
2023-03-15T05:23:03.156Z,974.53
2023-03-15T05:24:03.338Z,974.42
2023-03-15T05:25:03.632Z,974.33
2023-03-15T05:26:03.702Z,974.50
2023-03-15T05:27:03.738Z,974.31
2023-03-15T05:28:03.724Z,974.42
2023-03-15T05:29:03.743Z,974.45
2023-03-15T05:30:03.773Z,974.45
2023-03-15T05:31:03.837Z,974.42
2023-03-15T05:32:03.810Z,974.45
2023-03-15T05:33:03.723Z,974.59
2023-03-15T05:34:03.767Z,974.47
2023-03-15T05:35:03.709Z,974.50
2023-03-15T05:36:03.571Z,974.75
2023-03-15T05:37:03.637Z,974.53
2023-03-15T05:38:03.653Z,974.53
2023-03-15T05:39:03.819Z,974.59
2023-03-15T05:40:02.983Z,974.64
2023-03-15T05:41:03.136Z,974.64
2023-03-15T05:42:03.255Z,974.47
2023-03-15T05:43:03.323Z,974.59
2023-03-15T05:44:03.343Z,974.47
2023-03-15T05:45:03.527Z,974.61
2023-03-15T05:46:03.645Z,974.58
2023-03-15T05:47:03.905Z,974.58
2023-03-15T05:48:03.905Z,974.72
2023-03-15T05:49:03.891Z,974.92
2023-03-15T05:50:02.961Z,974.83
2023-03-15T05:51:02.978Z,974.69
2023-03-15T05:52:03.995Z,974.67
2023-03-15T05:53:03.945Z,974.72
2023-03-15T05:54:03.923Z,974.75
2023-03-15T05:55:03.052Z,974.86
2023-03-15T05:56:03.175Z,974.78
2023-03-15T05:57:03.144Z,974.66
2023-03-15T05:58:03.332Z,974.77
2023-03-15T05:59:03.337Z,974.91
2023-03-15T06:00:03.436Z,974.82
2023-03-15T06:01:03.341Z,974.79
2023-03-15T06:02:03.363Z,974.81
2023-03-15T06:03:03.421Z,974.72
2023-03-15T06:04:03.423Z,974.75
2023-03-15T06:05:03.348Z,974.71
2023-03-15T06:06:03.413Z,974.68
2023-03-15T06:07:03.421Z,974.76
2023-03-15T06:08:03.622Z,974.62
2023-03-15T06:09:03.630Z,974.67
2023-03-15T06:10:03.604Z,974.75
2023-03-15T06:11:03.688Z,974.75
2023-03-15T06:12:03.767Z,974.75
2023-03-15T06:13:03.834Z,974.81
2023-03-15T06:14:03.967Z,974.86
2023-03-15T06:15:02.908Z,974.86
2023-03-15T06:16:02.974Z,974.81
2023-03-15T06:17:03.151Z,974.72
2023-03-15T06:18:03.150Z,974.84
2023-03-15T06:19:03.316Z,974.89
2023-03-15T06:20:03.231Z,974.87
2023-03-15T06:21:03.412Z,974.95
2023-03-15T06:22:03.236Z,974.76
2023-03-15T06:23:03.265Z,974.90
2023-03-15T06:24:03.333Z,975.03
2023-03-15T06:25:03.403Z,975.03
2023-03-15T06:26:03.344Z,974.97
2023-03-15T06:27:03.415Z,974.97
2023-03-15T06:28:03.341Z,974.93
2023-03-15T06:29:03.422Z,975.03
2023-03-15T06:30:03.393Z,975.15
2023-03-15T06:31:03.580Z,975.15
2023-03-15T06:32:03.385Z,975.26
2023-03-15T06:33:03.724Z,975.15
2023-03-15T06:34:03.578Z,975.18
2023-03-15T06:35:03.487Z,975.33
2023-03-15T06:36:03.468Z,975.15
2023-03-15T06:37:03.471Z,975.32
2023-03-15T06:38:03.542Z,975.26
2023-03-15T06:39:03.589Z,975.26
2023-03-15T06:40:03.636Z,975.32
2023-03-15T06:41:03.598Z,975.32
2023-03-15T06:42:03.529Z,975.32
2023-03-15T06:43:03.707Z,975.33
2023-03-15T06:44:03.575Z,975.36
2023-03-15T06:45:03.584Z,975.42
2023-03-15T06:46:03.648Z,975.33
2023-03-15T06:47:03.581Z,975.33
2023-03-15T06:48:03.671Z,975.36
2023-03-15T06:49:03.763Z,975.44
2023-03-15T06:50:03.742Z,975.50
2023-03-15T06:51:03.711Z,975.39
2023-03-15T06:52:03.857Z,975.44
2023-03-15T06:53:02.922Z,975.49
2023-03-15T06:54:02.963Z,975.52
2023-03-15T06:55:03.098Z,975.52
2023-03-15T06:56:02.977Z,975.58
2023-03-15T06:57:02.986Z,975.46
2023-03-15T06:58:03.055Z,975.52
2023-03-15T06:59:03.010Z,975.63
2023-03-15T07:00:03.248Z,975.58
2023-03-15T07:01:03.238Z,975.52
2023-03-15T07:02:03.223Z,975.69
2023-03-15T07:03:03.212Z,975.66
2023-03-15T07:04:03.125Z,975.69
2023-03-15T07:05:03.148Z,975.66
2023-03-15T07:06:03.108Z,975.69
2023-03-15T07:07:03.209Z,975.82
2023-03-15T07:08:03.054Z,975.52
2023-03-15T07:09:03.070Z,975.60
2023-03-15T07:10:03.178Z,975.60
2023-03-15T07:11:03.282Z,975.60
2023-03-15T07:12:03.366Z,975.57
2023-03-15T07:13:03.476Z,975.63
2023-03-15T07:14:03.573Z,975.65
2023-03-15T07:15:03.433Z,975.65
2023-03-15T07:16:03.737Z,975.65
2023-03-15T07:17:03.725Z,975.73
2023-03-15T07:18:03.865Z,975.73
2023-03-15T07:19:03.884Z,975.73
2023-03-15T07:20:03.947Z,975.65
2023-03-15T07:21:03.960Z,975.81
2023-03-15T07:22:03.001Z,975.92
2023-03-15T07:23:02.964Z,975.59
2023-03-15T07:24:02.994Z,975.70
2023-03-15T07:25:02.983Z,975.81
2023-03-15T07:26:02.972Z,975.72
2023-03-15T07:27:03.076Z,975.84
2023-03-15T07:28:03.151Z,975.67
2023-03-15T07:29:03.071Z,975.72
2023-03-15T07:30:03.138Z,975.64
2023-03-15T07:31:03.159Z,975.75
2023-03-15T07:32:03.175Z,975.69
2023-03-15T07:33:03.336Z,975.69
2023-03-15T07:34:03.222Z,975.72
2023-03-15T07:35:03.295Z,975.77
2023-03-15T07:36:03.527Z,975.72
2023-03-15T07:37:03.467Z,975.88
2023-03-15T07:38:03.444Z,975.77
2023-03-15T07:39:03.545Z,975.85
2023-03-15T07:40:03.395Z,975.74
2023-03-15T07:41:03.522Z,975.82
2023-03-15T07:42:03.498Z,975.79
2023-03-15T07:43:03.572Z,975.93
2023-03-15T07:44:03.554Z,975.99
2023-03-15T07:45:03.781Z,975.87
2023-03-15T07:46:03.668Z,975.79
2023-03-15T07:47:03.617Z,975.79
2023-03-15T07:48:03.692Z,975.84
2023-03-15T07:49:03.823Z,975.79
2023-03-15T07:50:03.940Z,975.81
2023-03-15T07:51:04.054Z,975.79
2023-03-15T07:52:03.968Z,976.01
2023-03-15T07:53:03.849Z,976.04
2023-03-15T07:54:03.823Z,975.87
2023-03-15T07:55:02.941Z,975.98
2023-03-15T07:56:03.748Z,975.95
2023-03-15T07:57:04.181Z,975.98
2023-03-15T07:58:03.944Z,976.01
2023-03-15T07:59:02.930Z,976.03
2023-03-15T08:00:03.025Z,975.92
2023-03-15T08:01:03.101Z,975.89
2023-03-15T08:02:03.731Z,975.87
2023-03-15T08:03:03.146Z,975.81
2023-03-15T08:04:03.040Z,975.95
2023-03-15T08:05:03.012Z,976.12
2023-03-15T08:06:03.088Z,976.00
2023-03-15T08:07:03.190Z,975.98
2023-03-15T08:08:03.312Z,976.06
2023-03-15T08:09:03.312Z,976.01
2023-03-15T08:10:03.401Z,976.06
2023-03-15T08:11:03.361Z,975.98
2023-03-15T08:12:03.420Z,975.98
2023-03-15T08:13:03.362Z,976.15
2023-03-15T08:14:03.314Z,976.01
2023-03-15T08:15:03.390Z,976.12
2023-03-15T08:16:03.481Z,976.12
2023-03-15T08:17:03.407Z,976.04
2023-03-15T08:18:06.367Z,975.98
2023-03-15T08:19:03.376Z,976.10
2023-03-15T08:20:03.495Z,976.01
2023-03-15T08:21:03.410Z,976.07
2023-03-15T08:22:03.515Z,976.10
2023-03-15T08:23:03.449Z,976.04
2023-03-15T08:24:03.446Z,976.15
2023-03-15T08:25:03.368Z,976.04
2023-03-15T08:26:03.449Z,976.04
2023-03-15T08:27:03.440Z,976.04
2023-03-15T08:28:03.397Z,976.04
2023-03-15T08:29:03.393Z,976.15
2023-03-15T08:30:03.463Z,976.21
2023-03-15T08:31:03.477Z,976.09
2023-03-15T08:32:03.708Z,976.12
2023-03-15T08:33:03.828Z,976.12
2023-03-15T08:34:03.576Z,976.01
2023-03-15T08:35:03.605Z,976.21
2023-03-15T08:36:03.879Z,976.15
2023-03-15T08:37:03.594Z,976.12
2023-03-15T08:38:03.697Z,976.07
2023-03-15T08:39:03.794Z,976.09
2023-03-15T08:40:03.813Z,976.12
2023-03-15T08:41:03.678Z,976.09
2023-03-15T08:42:03.635Z,976.12
2023-03-15T08:43:03.855Z,976.15
2023-03-15T08:44:03.798Z,976.09
2023-03-15T08:45:03.784Z,976.20
2023-03-15T08:46:03.975Z,976.12
2023-03-15T08:47:03.979Z,976.09
2023-03-15T08:48:03.780Z,976.12
2023-03-15T08:49:02.986Z,976.26
2023-03-15T08:50:03.050Z,976.15
2023-03-15T08:51:03.049Z,976.17
2023-03-15T08:52:03.009Z,976.06
2023-03-15T08:53:03.056Z,976.15
2023-03-15T08:54:03.181Z,976.17
2023-03-15T08:55:03.279Z,976.06
2023-03-15T08:56:03.347Z,976.09
2023-03-15T08:57:03.254Z,976.14
2023-03-15T08:58:05.072Z,976.08
2023-03-15T08:59:03.311Z,976.17
2023-03-15T09:00:03.362Z,976.08
2023-03-15T09:01:03.230Z,976.13
2023-03-15T09:02:03.344Z,975.94
2023-03-15T09:03:03.429Z,976.10
2023-03-15T09:04:03.576Z,976.24
2023-03-15T09:05:03.441Z,976.07
2023-03-15T09:06:03.404Z,976.13
2023-03-15T09:07:03.527Z,976.13
2023-03-15T09:08:03.687Z,976.07
2023-03-15T09:09:03.768Z,976.10
2023-03-15T09:10:05.828Z,976.21
2023-03-15T09:11:03.710Z,976.26
2023-03-15T09:12:03.830Z,976.20
2023-03-15T09:13:03.874Z,976.15
2023-03-15T09:14:03.016Z,976.26
2023-03-15T09:15:02.991Z,976.31
2023-03-15T09:16:03.091Z,976.12
2023-03-15T09:17:03.205Z,976.26
2023-03-15T09:18:03.040Z,976.17
2023-03-15T09:19:03.145Z,976.37
2023-03-15T09:20:03.247Z,976.25
2023-03-15T09:21:03.177Z,976.37
2023-03-15T09:22:23.838Z,976.42
2023-03-15T09:23:03.275Z,976.31
2023-03-15T09:24:03.307Z,976.22
2023-03-15T09:25:03.326Z,976.31
2023-03-15T09:26:03.278Z,976.36
2023-03-15T09:27:03.274Z,976.39
2023-03-15T09:28:03.319Z,976.36
2023-03-15T09:29:03.406Z,976.53
2023-03-15T09:30:03.433Z,976.36
2023-03-15T09:31:03.564Z,976.53
2023-03-15T09:32:03.451Z,976.69
2023-03-15T09:33:03.566Z,976.44
2023-03-15T09:34:03.479Z,976.47
2023-03-15T09:35:03.387Z,976.47
2023-03-15T09:36:03.640Z,976.61
2023-03-15T09:37:03.694Z,976.52
2023-03-15T09:38:03.866Z,976.53
2023-03-15T09:39:03.943Z,976.50
2023-03-15T09:40:03.022Z,976.50
2023-03-15T09:41:02.970Z,976.53
2023-03-15T09:42:06.604Z,976.55
2023-03-15T09:43:03.002Z,976.64
2023-03-15T09:44:03.496Z,976.64
2023-03-15T09:45:03.540Z,976.55
2023-03-15T09:46:03.541Z,976.53
2023-03-15T09:47:03.621Z,976.66
2023-03-15T09:48:03.513Z,976.55
2023-03-15T09:49:03.542Z,976.72
2023-03-15T09:50:03.541Z,976.66
2023-03-15T09:51:03.755Z,976.79
2023-03-15T09:52:03.662Z,976.61
2023-03-15T09:53:03.803Z,976.82
2023-03-15T09:54:03.759Z,976.77
2023-03-15T09:55:03.684Z,976.66
2023-03-15T09:56:03.859Z,976.72
2023-03-15T09:57:03.821Z,976.77
2023-03-15T09:58:04.033Z,976.88
2023-03-15T09:59:03.780Z,976.67
2023-03-15T10:00:03.716Z,976.74
2023-03-15T10:01:03.751Z,976.82
2023-03-15T10:02:03.903Z,976.61
2023-03-15T10:03:03.986Z,976.63
2023-03-15T10:04:03.259Z,976.69
2023-03-15T10:05:03.074Z,976.84
2023-03-15T10:06:03.142Z,976.79
2023-03-15T10:07:03.216Z,976.68
2023-03-15T10:08:03.211Z,976.95
2023-03-15T10:09:03.138Z,976.73
2023-03-15T10:10:03.295Z,976.70
2023-03-15T10:11:03.246Z,976.70
2023-03-15T10:12:03.331Z,976.67
2023-03-15T10:13:03.298Z,976.70
2023-03-15T10:14:03.317Z,976.67
2023-03-15T10:15:03.372Z,976.72
2023-03-15T10:16:03.555Z,976.74
2023-03-15T10:17:03.536Z,976.61
2023-03-15T10:18:03.640Z,976.69
2023-03-15T10:19:03.604Z,976.66
2023-03-15T10:20:03.740Z,976.58
2023-03-15T10:21:03.654Z,976.79
2023-03-15T10:22:03.711Z,976.74
2023-03-15T10:23:03.763Z,976.69
2023-03-15T10:24:03.719Z,976.74
2023-03-15T10:25:03.810Z,976.72
2023-03-15T10:26:03.794Z,976.76
2023-03-15T10:27:03.831Z,976.66
2023-03-15T10:28:03.826Z,976.79
2023-03-15T10:29:02.989Z,976.76
2023-03-15T10:30:02.994Z,976.72
2023-03-15T10:31:03.602Z,976.79
2023-03-15T10:32:03.595Z,976.68
2023-03-15T10:33:04.101Z,976.78
2023-03-15T10:34:03.469Z,976.81
2023-03-15T10:35:03.669Z,976.75
2023-03-15T10:36:11.808Z,976.75
2023-03-15T10:37:03.710Z,976.73
2023-03-15T10:38:03.832Z,976.80
2023-03-15T10:39:03.948Z,976.83
2023-03-15T10:40:03.796Z,976.64
2023-03-15T10:41:02.953Z,976.88
2023-03-15T10:42:02.997Z,976.77
2023-03-15T10:43:03.237Z,976.76
2023-03-15T10:44:03.318Z,976.79
2023-03-15T10:45:03.365Z,976.66
2023-03-15T10:46:03.288Z,976.78
2023-03-15T10:47:23.415Z,976.75
2023-03-15T10:48:03.485Z,976.70
2023-03-15T10:49:03.482Z,976.67
2023-03-15T10:50:03.541Z,976.61
2023-03-15T10:51:03.465Z,976.52
2023-03-15T10:52:03.516Z,976.48
2023-03-15T10:53:03.557Z,976.73
2023-03-15T10:54:03.642Z,976.64
2023-03-15T10:55:04.977Z,976.67
2023-03-15T10:56:03.749Z,976.52
2023-03-15T10:57:03.726Z,976.60
2023-03-15T10:58:03.727Z,976.65
2023-03-15T10:59:13.186Z,976.60
2023-03-15T11:00:03.737Z,976.62
2023-03-15T11:01:03.753Z,976.68
2023-03-15T11:02:03.951Z,976.67
2023-03-15T11:03:03.867Z,976.73
2023-03-15T11:04:03.914Z,976.89
2023-03-15T11:05:03.837Z,976.74
2023-03-15T11:06:03.761Z,976.91
2023-03-15T11:07:03.974Z,977.03
2023-03-15T11:08:03.873Z,977.06
2023-03-15T11:09:03.777Z,977.03
2023-03-15T11:10:04.028Z,977.22
2023-03-15T11:11:03.859Z,977.08
2023-03-15T11:12:03.807Z,977.14
2023-03-15T11:13:03.810Z,977.28
2023-03-15T11:14:03.866Z,977.14
2023-03-15T11:15:03.847Z,977.34
2023-03-15T11:16:03.017Z,977.25
2023-03-15T11:17:03.098Z,977.23
2023-03-15T11:18:03.074Z,977.26
2023-03-15T11:19:03.164Z,977.48
2023-03-15T11:20:03.246Z,977.46
2023-03-15T11:21:03.205Z,977.40
2023-03-15T11:22:03.330Z,977.35
2023-03-15T11:23:03.236Z,977.43
2023-03-15T11:24:03.228Z,977.49
2023-03-15T11:25:03.402Z,977.58
2023-03-15T11:26:03.242Z,977.61
2023-03-15T11:27:03.395Z,977.55
2023-03-15T11:28:03.536Z,977.56
2023-03-15T11:29:03.512Z,977.62
2023-03-15T11:30:03.540Z,977.73
2023-03-15T11:31:03.517Z,977.73
2023-03-15T11:32:03.669Z,977.82
2023-03-15T11:33:03.917Z,977.83
2023-03-15T11:34:03.800Z,977.83
2023-03-15T11:35:03.854Z,977.75
2023-03-15T11:36:04.032Z,977.86
2023-03-15T11:37:09.922Z,977.84
2023-03-15T11:38:15.983Z,977.67
2023-03-15T11:39:03.509Z,977.76
2023-03-15T11:40:12.916Z,977.71
2023-03-15T11:41:02.994Z,977.71
2023-03-15T11:42:02.971Z,977.71
2023-03-15T11:43:02.953Z,977.69
2023-03-15T11:44:03.058Z,977.62
2023-03-15T11:45:03.300Z,977.69
2023-03-15T11:46:03.530Z,977.62
2023-03-15T11:47:03.575Z,977.56
2023-03-15T11:48:03.487Z,977.67
2023-03-15T11:49:03.504Z,977.62
2023-03-15T11:50:03.523Z,977.57
2023-03-15T11:51:03.584Z,977.46
2023-03-15T11:52:03.718Z,977.34
2023-03-15T11:53:03.694Z,977.35
2023-03-15T11:54:03.692Z,977.35
2023-03-15T11:55:03.855Z,977.46
2023-03-15T11:56:03.977Z,977.38
2023-03-15T11:57:03.847Z,977.43
2023-03-15T11:58:03.794Z,977.21
2023-03-15T11:59:03.901Z,977.41
2023-03-15T12:00:03.932Z,977.41
2023-03-15T12:01:03.951Z,977.21
2023-03-15T12:02:03.861Z,977.27
2023-03-15T12:03:03.047Z,977.35
2023-03-15T12:04:02.943Z,977.18
2023-03-15T12:05:18.395Z,977.10
2023-03-15T12:06:03.001Z,977.13
2023-03-15T12:07:03.126Z,977.21
2023-03-15T12:08:03.091Z,977.21
2023-03-15T12:09:03.182Z,977.26
2023-03-15T12:10:03.124Z,977.23
2023-03-15T12:11:03.088Z,977.09
2023-03-15T12:12:03.109Z,977.17
2023-03-15T12:13:03.295Z,977.23
2023-03-15T12:14:03.264Z,977.14
2023-03-15T12:15:03.434Z,977.23
2023-03-15T12:16:03.384Z,977.28
2023-03-15T12:17:03.420Z,977.28
2023-03-15T12:18:03.444Z,977.26
2023-03-15T12:19:03.589Z,977.46
2023-03-15T12:20:03.552Z,977.38
2023-03-15T12:21:03.453Z,977.35
2023-03-15T12:22:03.582Z,977.44
2023-03-15T12:23:03.741Z,977.55
2023-03-15T12:24:03.906Z,977.47
2023-03-15T12:25:03.821Z,977.56
2023-03-15T12:26:02.963Z,977.56
2023-03-15T12:27:02.970Z,977.62
2023-03-15T12:28:03.915Z,977.46
2023-03-15T12:29:02.968Z,977.43